createdAt,value
2022-11-20T00:01:21.685Z,95902.34
2022-11-20T00:03:48.776Z,95904.06
2022-11-20T00:06:18.765Z,95901.69
2022-11-20T00:08:46.328Z,95904.53
2022-11-20T00:11:18.104Z,95909.78
2022-11-20T00:13:46.495Z,95903.38
2022-11-20T00:16:16.287Z,95912.22
2022-11-20T00:18:45.827Z,95903.13
2022-11-20T00:21:22.627Z,95910.38
2022-11-20T00:23:53.860Z,95912.16
2022-11-20T00:26:24.366Z,95911.84
2022-11-20T00:29:00.110Z,95921.47
2022-11-20T00:31:28.530Z,95913.84
2022-11-20T00:33:55.497Z,95910.78
2022-11-20T00:36:25.431Z,95915.31
2022-11-20T00:38:54.310Z,95912.97
2022-11-20T00:41:21.672Z,95914.66
2022-11-20T00:43:48.584Z,95919.22
2022-11-20T00:46:22.479Z,95916.06
2022-11-20T00:48:49.512Z,95918.53
2022-11-20T00:51:20.186Z,95919.13
2022-11-20T00:53:47.811Z,95920.75
2022-11-20T00:56:18.189Z,95921.94
2022-11-20T00:58:47.838Z,95928.44
2022-11-20T01:01:19.420Z,95924.53
2022-11-20T01:03:50.064Z,95925.94
2022-11-20T01:06:21.240Z,95924.59
2022-11-20T01:08:49.442Z,95932.31
2022-11-20T01:11:20.203Z,95935.13
2022-11-20T01:13:49.196Z,95930.97
2022-11-20T01:16:23.453Z,95933.50
2022-11-20T01:18:53.783Z,95939.94
2022-11-20T01:21:33.714Z,95941.75
2022-11-20T01:24:01.447Z,95947.13
2022-11-20T01:26:33.168Z,95949.69
2022-11-20T01:29:01.292Z,95944.63
2022-11-20T01:31:30.846Z,95949.63
2022-11-20T01:34:01.332Z,95949.22
2022-11-20T01:36:30.381Z,95948.22
2022-11-20T01:39:00.822Z,95944.94
2022-11-20T01:41:48.926Z,95951.66
2022-11-20T01:44:19.151Z,95953.63
2022-11-20T01:46:57.780Z,95957.31
2022-11-20T01:49:43.757Z,95953.81
2022-11-20T01:52:15.636Z,95956.69
2022-11-20T01:54:50.822Z,95954.63
2022-11-20T01:57:20.704Z,95952.47
2022-11-20T02:00:01.005Z,95955.09
2022-11-20T02:02:28.501Z,95944.81
2022-11-20T02:05:03.777Z,95949.06
2022-11-20T02:07:31.812Z,95955.34
2022-11-20T02:09:59.109Z,95953.34
2022-11-20T02:12:44.639Z,95954.41
2022-11-20T02:15:11.672Z,95959.84
2022-11-20T02:17:39.220Z,95956.47
2022-11-20T02:20:07.390Z,95953.72
2022-11-20T02:22:49.599Z,95953.59
2022-11-20T02:25:17.126Z,95954.00
2022-11-20T02:27:44.223Z,95967.31
2022-11-20T02:30:12.028Z,95964.06
2022-11-20T02:32:39.828Z,95958.34
2022-11-20T02:35:10.829Z,95956.97
2022-11-20T02:37:41.309Z,95954.72
2022-11-20T02:40:09.200Z,95950.38
2022-11-20T02:42:37.237Z,95947.63
2022-11-20T02:45:05.946Z,95946.88
2022-11-20T02:47:33.428Z,95951.56
2022-11-20T02:50:00.387Z,95933.50
2022-11-20T02:52:27.380Z,95939.81
2022-11-20T02:54:54.244Z,95938.19
2022-11-20T02:57:21.217Z,95938.69
2022-11-20T02:59:48.020Z,95943.03
2022-11-20T03:02:14.803Z,95950.09
2022-11-20T03:04:41.619Z,95933.03
2022-11-20T03:07:10.716Z,95935.97
2022-11-20T03:09:37.844Z,95935.06
2022-11-20T03:12:05.245Z,95946.00
2022-11-20T03:14:32.103Z,95941.66
2022-11-20T03:16:58.957Z,95949.25
2022-11-20T03:19:25.780Z,95949.38
2022-11-20T03:21:52.592Z,95951.50
2022-11-20T03:24:19.458Z,95948.72
2022-11-20T03:26:46.338Z,95949.50
2022-11-20T03:29:13.231Z,95952.50
2022-11-20T03:31:41.910Z,95935.75
2022-11-20T03:34:10.775Z,95950.13
2022-11-20T03:36:42.873Z,95943.06
2022-11-20T03:39:10.656Z,95940.88
2022-11-20T03:41:40.845Z,95948.81
2022-11-20T03:44:10.874Z,95951.47
2022-11-20T03:46:38.042Z,95952.38
2022-11-20T03:49:05.605Z,95949.75
2022-11-20T03:51:35.707Z,95943.06
2022-11-20T03:54:08.600Z,95947.41
2022-11-20T03:56:38.714Z,95946.28
2022-11-20T03:59:06.048Z,95945.25
2022-11-20T04:01:36.142Z,95942.38
2022-11-20T04:04:04.115Z,95950.34
2022-11-20T04:06:36.827Z,95952.56
2022-11-20T04:09:04.760Z,95961.94
2022-11-20T04:11:35.083Z,95953.28
2022-11-20T04:14:05.913Z,95946.94
2022-11-20T04:16:37.222Z,95956.25
2022-11-20T04:19:07.539Z,95947.03
2022-11-20T04:21:34.604Z,95951.63
2022-11-20T04:24:01.959Z,95957.44
2022-11-20T04:26:30.128Z,95953.91
2022-11-20T04:28:58.277Z,95948.69
2022-11-20T04:31:28.620Z,95950.13
2022-11-20T04:33:55.873Z,95943.50
2022-11-20T04:36:27.737Z,95943.28
2022-11-20T04:39:00.282Z,95947.44
2022-11-20T04:41:30.689Z,95942.78
2022-11-20T04:44:03.271Z,95941.47
2022-11-20T04:46:32.903Z,95951.25
2022-11-20T04:49:00.772Z,95951.38
2022-11-20T04:51:28.428Z,95953.09
2022-11-20T04:53:55.412Z,95953.88
2022-11-20T04:56:22.337Z,95947.63
2022-11-20T04:58:49.248Z,95951.38
2022-11-20T05:01:25.079Z,95951.88
2022-11-20T05:03:52.567Z,95954.16
2022-11-20T05:06:22.209Z,95945.19
2022-11-20T05:08:49.324Z,95946.66
2022-11-20T05:11:20.457Z,95951.25
2022-11-20T05:13:47.749Z,95954.38
2022-11-20T05:16:18.385Z,95954.47
2022-11-20T05:18:45.729Z,95951.63
2022-11-20T05:21:14.172Z,95955.09
2022-11-20T05:23:42.093Z,95953.47
2022-11-20T05:26:22.151Z,95955.09
2022-11-20T05:28:50.062Z,95957.13
2022-11-20T05:31:27.252Z,95945.03
2022-11-20T05:33:56.640Z,95953.13
2022-11-20T05:36:23.808Z,95955.22
2022-11-20T05:38:51.345Z,95950.97
2022-11-20T05:41:20.860Z,95955.84
2022-11-20T05:43:49.330Z,95952.94
2022-11-20T05:46:21.263Z,95952.31
2022-11-20T05:48:51.794Z,95947.03
2022-11-20T05:51:20.679Z,95946.84
2022-11-20T05:53:48.764Z,95959.59
2022-11-20T05:56:21.418Z,95955.50
2022-11-20T05:58:49.048Z,95956.38
2022-11-20T06:01:25.450Z,95955.50
2022-11-20T06:03:54.144Z,95968.34
2022-11-20T06:06:22.037Z,95962.34
2022-11-20T06:08:49.804Z,95971.53
2022-11-20T06:11:17.965Z,95964.63
2022-11-20T06:13:46.347Z,95972.66
2022-11-20T06:16:16.932Z,95969.63
2022-11-20T06:18:43.952Z,95979.16
2022-11-20T06:21:19.574Z,95969.59
2022-11-20T06:23:46.717Z,95976.13
2022-11-20T06:26:24.194Z,95983.72
2022-11-20T06:28:52.168Z,95991.44
2022-11-20T06:31:22.257Z,95982.59
2022-11-20T06:33:49.948Z,95980.88
2022-11-20T06:36:20.094Z,95987.97
2022-11-20T06:38:46.948Z,95987.63
2022-11-20T06:41:17.092Z,95991.03
2022-11-20T06:43:44.293Z,95994.56
2022-11-20T06:46:13.392Z,95988.66
2022-11-20T06:48:41.084Z,95995.84
2022-11-20T06:51:09.296Z,95993.69
2022-11-20T06:53:37.179Z,96005.03
2022-11-20T06:56:04.672Z,96003.59
2022-11-20T06:58:33.623Z,96006.13
2022-11-20T07:01:12.482Z,95992.03
2022-11-20T07:03:40.631Z,96008.59
2022-11-20T07:06:07.904Z,96016.53
2022-11-20T07:08:35.836Z,96007.19
2022-11-20T07:11:06.315Z,96012.81
2022-11-20T07:13:33.911Z,96015.59
2022-11-20T07:16:07.358Z,96014.19
2022-11-20T07:18:34.786Z,96014.63
2022-11-20T07:21:03.631Z,96015.63
2022-11-20T07:23:30.670Z,96009.41
2022-11-20T07:25:57.461Z,96020.84
2022-11-20T07:28:24.251Z,96013.41
2022-11-20T07:30:54.541Z,96014.78
2022-11-20T07:33:22.003Z,96014.38
2022-11-20T07:35:48.847Z,96020.50
2022-11-20T07:38:16.043Z,96018.63
2022-11-20T07:40:42.872Z,96019.13
2022-11-20T07:43:09.691Z,96008.03
2022-11-20T07:45:36.561Z,96021.72
2022-11-20T07:48:03.641Z,96025.63
2022-11-20T07:50:30.545Z,96028.72
2022-11-20T07:53:06.854Z,96028.69
2022-11-20T07:55:34.202Z,96033.00
2022-11-20T07:58:01.175Z,96019.78
2022-11-20T08:00:28.613Z,96020.56
2022-11-20T08:02:55.755Z,96026.94
2022-11-20T08:05:22.633Z,96025.84
2022-11-20T08:07:49.576Z,96016.75
2022-11-20T08:10:17.311Z,96026.97
2022-11-20T08:13:10.734Z,96019.59
2022-11-20T08:15:39.771Z,96027.34
2022-11-20T08:20:57.158Z,96022.25
2022-11-20T08:23:24.858Z,96021.97
2022-11-20T08:25:52.203Z,96022.47
2022-11-20T08:28:21.632Z,96028.28
2022-11-20T08:30:51.007Z,96016.94
2022-11-20T08:33:18.992Z,96019.47
2022-11-20T08:35:45.957Z,96017.84
2022-11-20T08:38:12.825Z,96024.75
2022-11-20T08:40:39.620Z,96018.34
2022-11-20T08:43:06.449Z,96019.69
2022-11-20T08:45:35.040Z,96027.03
2022-11-20T08:48:04.117Z,96019.91
2022-11-20T08:50:33.353Z,96023.41
2022-11-20T08:53:07.266Z,96033.13
2022-11-20T08:55:36.488Z,96032.16
2022-11-20T08:58:07.811Z,96025.53
2022-11-20T09:00:35.416Z,96028.09
2022-11-20T09:03:02.853Z,96024.09
2022-11-20T09:05:30.262Z,96019.78
2022-11-20T09:08:00.391Z,96018.19
2022-11-20T09:10:28.536Z,96022.28
2022-11-20T09:12:56.502Z,96029.88
2022-11-20T09:15:25.072Z,96023.19
2022-11-20T09:18:01.885Z,96030.63
2022-11-20T09:20:32.065Z,96019.72
2022-11-20T09:22:59.098Z,96028.25
2022-11-20T09:25:26.270Z,96025.44
2022-11-20T09:28:00.002Z,96021.84
2022-11-20T09:30:28.010Z,96017.50
2022-11-20T09:32:55.308Z,96028.19
2022-11-20T09:35:22.130Z,96017.00
2022-11-20T09:37:49.024Z,96013.09
2022-11-20T09:40:23.859Z,96005.06
2022-11-20T09:42:58.652Z,96017.59
2022-11-20T09:46:21.109Z,96012.34
2022-11-20T09:49:09.117Z,96012.28
2022-11-20T09:51:42.669Z,96012.66
2022-11-20T09:54:36.683Z,96004.03
2022-11-20T09:57:13.681Z,96006.63
2022-11-20T09:59:52.265Z,95999.78
2022-11-20T10:02:27.733Z,96011.28
2022-11-20T10:05:10.410Z,96002.44
2022-11-20T10:08:00.290Z,96007.41
2022-11-20T10:10:52.425Z,96006.41
2022-11-20T10:13:46.291Z,96006.69
2022-11-20T10:16:15.715Z,96002.09
2022-11-20T10:18:56.128Z,96001.88
2022-11-20T10:21:48.187Z,96012.03
2022-11-20T10:24:42.615Z,96004.53
2022-11-20T10:27:45.714Z,95998.31
2022-11-20T10:30:15.941Z,95988.06
2022-11-20T10:32:48.086Z,95984.25
2022-11-20T10:35:14.765Z,95980.91
2022-11-20T10:37:46.372Z,95989.63
2022-11-20T10:40:45.453Z,95991.22
2022-11-20T10:43:33.892Z,95988.22
2022-11-20T10:46:13.621Z,95990.78
2022-11-20T10:48:44.383Z,95981.88
2022-11-20T10:51:37.878Z,95984.00
2022-11-20T10:54:59.953Z,95977.38
2022-11-20T10:57:55.346Z,95979.91
2022-11-20T11:00:22.477Z,95976.78
2022-11-20T11:02:52.517Z,95979.06
2022-11-20T11:05:41.665Z,95975.84
2022-11-20T11:08:17.160Z,95979.09
2022-11-20T11:11:19.710Z,95982.50
2022-11-20T11:13:46.777Z,95971.41
2022-11-20T11:16:26.816Z,95967.00
2022-11-20T11:19:14.258Z,95968.03
2022-11-20T11:21:55.612Z,95956.09
2022-11-20T11:24:44.197Z,95950.22
2022-11-20T11:27:18.669Z,95962.94
2022-11-20T11:29:47.013Z,95951.00
2022-11-20T11:32:20.176Z,95952.56
2022-11-20T11:35:04.314Z,95950.22
2022-11-20T11:37:39.697Z,95949.38
2022-11-20T11:40:28.539Z,95947.34
2022-11-20T11:43:00.871Z,95957.44
2022-11-20T11:45:28.816Z,95946.47
2022-11-20T11:47:58.876Z,95940.47
2022-11-20T11:50:30.430Z,95943.91
2022-11-20T11:53:10.868Z,95939.72
2022-11-20T11:55:49.006Z,95940.13
2022-11-20T11:58:25.179Z,95933.47
2022-11-20T12:01:01.528Z,95929.44
2022-11-20T12:03:44.803Z,95940.94
2022-11-20T12:06:17.458Z,95934.91
2022-11-20T12:09:08.836Z,95943.38
2022-11-20T12:12:04.221Z,95937.28
2022-11-20T12:14:41.098Z,95930.84
2022-11-20T12:17:13.090Z,95946.56
2022-11-20T12:19:40.438Z,95943.38
2022-11-20T12:22:29.808Z,95939.31
2022-11-20T12:25:12.978Z,95945.41
2022-11-20T12:28:06.679Z,95950.19
2022-11-20T12:30:49.579Z,95937.25
2022-11-20T12:33:50.513Z,95932.44
2022-11-20T12:36:21.059Z,95932.22
2022-11-20T12:39:19.344Z,95932.41
2022-11-20T12:42:23.379Z,95921.91
2022-11-20T12:45:11.353Z,95926.22
2022-11-20T12:48:16.267Z,95936.13
2022-11-20T12:51:26.119Z,95932.09
2022-11-20T12:54:31.106Z,95939.69
2022-11-20T12:57:22.647Z,95948.19
2022-11-20T13:00:16.002Z,95929.03
2022-11-20T13:03:00.304Z,95934.69
2022-11-20T13:05:57.116Z,95927.84
2022-11-20T13:08:39.207Z,95932.88
2022-11-20T13:11:35.614Z,95922.16
2022-11-20T13:14:27.436Z,95921.16
2022-11-20T13:17:06.318Z,95917.94
2022-11-20T13:19:34.263Z,95919.94
2022-11-20T13:22:01.245Z,95915.09
2022-11-20T13:24:32.234Z,95917.13
2022-11-20T13:27:13.987Z,95912.47
2022-11-20T13:29:46.378Z,95922.50
2022-11-20T13:32:19.279Z,95919.69
2022-11-20T13:35:01.657Z,95919.28
2022-11-20T13:37:38.599Z,95922.56
2022-11-20T13:40:11.423Z,95920.13
2022-11-20T13:42:43.955Z,95913.19
2022-11-20T13:45:23.821Z,95909.00
2022-11-20T13:47:53.098Z,95903.75
2022-11-20T13:50:26.335Z,95908.72
2022-11-20T13:53:38.925Z,95912.16
2022-11-20T13:56:10.166Z,95910.94
2022-11-20T13:59:05.341Z,95903.56
2022-11-20T14:01:33.591Z,95900.13
2022-11-20T14:04:08.068Z,95898.47
2022-11-20T14:06:43.720Z,95912.47
2022-11-20T14:09:33.362Z,95913.47
2022-11-20T14:12:00.729Z,95909.31
2022-11-20T14:14:33.303Z,95916.59
2022-11-20T14:17:34.522Z,95910.88
2022-11-20T14:20:06.258Z,95912.44
2022-11-20T14:22:33.113Z,95914.38
2022-11-20T14:25:18.331Z,95918.31
2022-11-20T14:27:55.255Z,95910.84
2022-11-20T14:30:25.991Z,95910.06
2022-11-20T14:33:01.422Z,95907.63
2022-11-20T14:35:32.640Z,95912.06
2022-11-20T14:37:59.715Z,95913.84
2022-11-20T14:40:36.784Z,95907.22
2022-11-20T14:43:28.013Z,95913.25
2022-11-20T14:46:10.187Z,95907.25
2022-11-20T14:49:01.759Z,95910.19
2022-11-20T14:51:37.758Z,95903.63
2022-11-20T14:54:26.440Z,95920.84
2022-11-20T14:57:02.722Z,95912.41
2022-11-20T14:59:35.021Z,95910.84
2022-11-20T15:02:12.246Z,95905.25
2022-11-20T15:04:50.183Z,95904.44
2022-11-20T15:07:29.352Z,95906.06
2022-11-20T15:10:10.524Z,95905.44
2022-11-20T15:12:47.782Z,95918.03
2022-11-20T15:15:51.273Z,95912.03
2022-11-20T15:18:23.427Z,95905.78
2022-11-20T15:20:51.126Z,95904.16
2022-11-20T15:23:20.048Z,95922.84
2022-11-20T15:25:48.497Z,95912.72
2022-11-20T15:28:31.471Z,95911.78
2022-11-20T15:30:58.794Z,95905.44
2022-11-20T15:33:25.786Z,95908.97
2022-11-20T15:35:52.631Z,95900.06
2022-11-20T15:38:19.432Z,95899.47
2022-11-20T15:40:46.191Z,95899.69
2022-11-20T15:43:13.967Z,95890.00
2022-11-20T15:45:56.818Z,95895.22
2022-11-20T15:48:30.942Z,95899.50
2022-11-20T15:51:12.771Z,95902.56
2022-11-20T15:53:42.009Z,95899.81
2022-11-20T15:56:15.729Z,95901.09
2022-11-20T15:58:42.815Z,95895.13
2022-11-20T16:01:15.778Z,95893.88
2022-11-20T16:03:43.114Z,95896.28
2022-11-20T16:06:10.072Z,95894.13
2022-11-20T16:08:37.067Z,95901.44
2022-11-20T16:11:04.729Z,95906.41
2022-11-20T16:13:51.843Z,95896.81
2022-11-20T16:16:33.567Z,95903.75
2022-11-20T16:19:01.183Z,95895.66
2022-11-20T16:21:32.235Z,95887.78
2022-11-20T16:24:05.831Z,95885.59
2022-11-20T16:26:33.803Z,95888.31
2022-11-20T16:29:03.394Z,95889.22
2022-11-20T16:31:30.432Z,95884.78
2022-11-20T16:34:00.911Z,95885.53
2022-11-20T16:36:30.207Z,95891.97
2022-11-20T16:39:00.601Z,95884.28
2022-11-20T16:41:30.733Z,95883.84
2022-11-20T16:44:00.495Z,95876.19
2022-11-20T16:46:30.856Z,95875.78
2022-11-20T16:49:06.378Z,95874.34
2022-11-20T16:51:36.108Z,95877.97
2022-11-20T16:54:08.593Z,95875.53
2022-11-20T16:56:36.070Z,95878.28
2022-11-20T16:59:03.674Z,95864.97
2022-11-20T17:01:31.785Z,95871.31
2022-11-20T17:04:05.187Z,95870.97
2022-11-20T17:06:44.049Z,95864.09
2022-11-20T17:09:11.507Z,95858.34
2022-11-20T17:11:38.728Z,95851.66
2022-11-20T17:14:07.397Z,95863.63
2022-11-20T17:16:36.183Z,95871.72
2022-11-20T17:19:04.091Z,95864.38
2022-11-20T17:21:35.834Z,95869.16
2022-11-20T17:24:08.407Z,95861.56
2022-11-20T17:26:37.667Z,95863.50
2022-11-20T17:29:09.587Z,95866.88
2022-11-20T17:31:41.007Z,95864.00
2022-11-20T17:34:11.540Z,95867.81
2022-11-20T17:36:45.716Z,95867.69
2022-11-20T17:39:14.936Z,95859.22
2022-11-20T17:41:42.058Z,95857.59
2022-11-20T17:44:12.835Z,95857.69
2022-11-20T17:46:40.039Z,95842.56
2022-11-20T17:49:07.436Z,95842.09
2022-11-20T17:51:37.879Z,95839.53
2022-11-20T17:54:09.521Z,95839.81
2022-11-20T17:56:55.264Z,95829.38
2022-11-20T17:59:22.298Z,95841.44
2022-11-20T18:01:49.345Z,95843.66
2022-11-20T18:04:16.821Z,95831.81
2022-11-20T18:06:44.090Z,95823.66
2022-11-20T18:09:11.563Z,95824.50
2022-11-20T18:11:41.979Z,95835.09
2022-11-20T18:14:36.254Z,95828.88
2022-11-20T18:17:10.769Z,95828.50
2022-11-20T18:19:55.536Z,95823.66
2022-11-20T18:22:31.292Z,95827.69
2022-11-20T18:24:58.227Z,95823.66
2022-11-20T18:27:25.055Z,95811.59
2022-11-20T18:29:52.328Z,95819.59
2022-11-20T18:32:21.756Z,95819.44
2022-11-20T18:34:48.736Z,95822.78
2022-11-20T18:37:16.513Z,95809.44
2022-11-20T18:39:43.605Z,95811.00
2022-11-20T18:42:34.837Z,95810.19
2022-11-20T18:45:04.648Z,95821.38
2022-11-20T18:47:37.290Z,95813.38
2022-11-20T18:50:07.927Z,95817.91
2022-11-20T18:52:44.276Z,95817.38
2022-11-20T18:55:12.593Z,95820.28
2022-11-20T18:57:39.434Z,95806.09
2022-11-20T19:00:09.684Z,95814.44
2022-11-20T19:02:43.019Z,95812.09
2022-11-20T19:05:14.755Z,95808.88
2022-11-20T19:07:42.388Z,95813.16
2022-11-20T19:10:09.596Z,95802.22
2022-11-20T19:12:36.516Z,95802.22
2022-11-20T19:15:04.199Z,95801.78
2022-11-20T19:17:33.016Z,95799.97
2022-11-20T19:20:00.231Z,95790.53
2022-11-20T19:22:27.122Z,95791.78
2022-11-20T19:24:54.624Z,95787.22
2022-11-20T19:27:21.502Z,95777.78
2022-11-20T19:29:48.429Z,95777.22
2022-11-20T19:32:16.265Z,95785.31
2022-11-20T19:34:43.657Z,95780.13
2022-11-20T19:37:10.653Z,95776.16
2022-11-20T19:39:37.710Z,95785.31
2022-11-20T19:42:04.606Z,95775.25
2022-11-20T19:44:32.928Z,95774.09
2022-11-20T19:47:00.434Z,95770.22
2022-11-20T19:49:27.264Z,95770.31
2022-11-20T19:51:54.102Z,95781.88
2022-11-20T19:54:20.966Z,95771.47
2022-11-20T19:56:49.413Z,95765.25
2022-11-20T19:59:16.397Z,95754.75
2022-11-20T20:01:43.490Z,95763.22
2022-11-20T20:04:10.376Z,95752.78
2022-11-20T20:06:41.623Z,95753.13
2022-11-20T20:09:11.951Z,95752.06
2022-11-20T20:11:39.980Z,95752.50
2022-11-20T20:14:14.974Z,95751.50
2022-11-20T20:16:42.671Z,95745.13
2022-11-20T20:19:14.493Z,95749.97
2022-11-20T20:21:41.468Z,95748.81
2022-11-20T20:24:11.016Z,95742.59
2022-11-20T20:26:38.132Z,95740.34
2022-11-20T20:29:04.918Z,95729.56
2022-11-20T20:31:33.709Z,95740.44
2022-11-20T20:34:03.223Z,95739.63
2022-11-20T20:36:30.163Z,95730.63
2022-11-20T20:39:04.909Z,95726.47
2022-11-20T20:41:32.164Z,95726.88
2022-11-20T20:44:17.831Z,95737.09
2022-11-20T20:46:44.704Z,95718.41
2022-11-20T20:49:11.954Z,95721.00
2022-11-20T20:51:39.030Z,95715.53
2022-11-20T20:54:06.008Z,95720.50
2022-11-20T20:56:32.852Z,95728.69
2022-11-20T20:58:59.664Z,95715.91
2022-11-20T21:01:29.017Z,95719.13
2022-11-20T21:03:57.082Z,95715.16
2022-11-20T21:06:24.179Z,95712.47
2022-11-20T21:08:51.729Z,95712.81
2022-11-20T21:11:20.349Z,95714.44
2022-11-20T21:13:47.941Z,95711.28
2022-11-20T21:16:17.871Z,95714.06
2022-11-20T21:18:44.758Z,95716.94
2022-11-20T21:21:34.928Z,95701.19
2022-11-20T21:24:02.832Z,95707.75
2022-11-20T21:26:30.108Z,95702.16
2022-11-20T21:28:57.548Z,95705.41
2022-11-20T21:31:26.694Z,95710.34
2022-11-20T21:33:56.357Z,95711.50
2022-11-20T21:36:26.740Z,95708.09
2022-11-20T21:38:55.218Z,95715.09
2022-11-20T21:41:23.926Z,95713.75
2022-11-20T21:44:29.034Z,95722.66
2022-11-20T21:46:45.261Z,95739.03
2022-11-20T21:49:12.777Z,95739.78
2022-11-20T21:51:39.588Z,95737.44
2022-11-20T21:54:06.443Z,95732.75
2022-11-20T21:56:33.490Z,95753.38
2022-11-20T21:59:00.539Z,95750.16
2022-11-20T22:01:30.166Z,95741.97
2022-11-20T22:04:02.052Z,95748.94
2022-11-20T22:06:34.275Z,95737.09
2022-11-20T22:09:02.688Z,95729.53
2022-11-20T22:11:30.093Z,95721.00
2022-11-20T22:14:15.290Z,95720.50
2022-11-20T22:16:42.167Z,95720.66
2022-11-20T22:19:09.624Z,95714.47
2022-11-20T22:21:39.627Z,95711.22
2022-11-20T22:24:06.738Z,95710.44
2022-11-20T22:26:40.130Z,95703.56
2022-11-20T22:29:08.396Z,95711.63
2022-11-20T22:31:35.207Z,95702.69
2022-11-20T22:34:02.874Z,95713.66
2022-11-20T22:36:31.545Z,95717.47
2022-11-20T22:38:58.782Z,95721.56
2022-11-20T22:41:28.240Z,95715.22
2022-11-20T22:44:00.592Z,95711.13
2022-11-20T22:46:30.597Z,95724.94
2022-11-20T22:49:01.335Z,95713.88
2022-11-20T22:51:35.093Z,95720.41
2022-11-20T22:54:03.499Z,95719.25
2022-11-20T22:56:31.031Z,95716.34
2022-11-20T22:58:57.862Z,95716.34
2022-11-20T23:01:30.968Z,95714.22
2022-11-20T23:04:04.503Z,95714.81
2022-11-20T23:06:34.341Z,95714.06
2022-11-20T23:09:02.898Z,95704.59
2022-11-20T23:11:31.503Z,95707.13
2022-11-20T23:14:05.277Z,95714.88
2022-11-20T23:16:33.532Z,95711.38
2022-11-20T23:19:04.847Z,95712.59
2022-11-20T23:21:32.466Z,95706.28
2022-11-20T23:24:00.081Z,95706.53
2022-11-20T23:26:30.650Z,95705.13
2022-11-20T23:28:59.049Z,95703.06
2022-11-20T23:31:28.358Z,95711.72
2022-11-20T23:33:55.467Z,95720.84
2022-11-20T23:36:22.568Z,95709.34
2022-11-20T23:38:49.480Z,95702.75
2022-11-20T23:41:16.848Z,95699.31
2022-11-20T23:43:43.774Z,95707.25
2022-11-20T23:46:15.109Z,95698.72
2022-11-20T23:48:44.797Z,95694.69
2022-11-20T23:51:11.627Z,95700.84
2022-11-20T23:53:38.569Z,95700.16
2022-11-20T23:56:06.094Z,95692.44
2022-11-20T23:58:35.999Z,95711.22
